Pulau Tioman — 3EYO9 — position and weather

sailwx.info

Track history (hours):
 
Tides and Currents Weather Stations Pressure Air Temp Water Temp Dewpoint Dewpoint Depression Visibility Wind Speed Wind Dir Waves Ship Positions

Pulau Tioman

Last reported at 2015-Jun-27 09:27 UTC. Time now 2015-Jul-01 12:49 UTC.
Position N 34°33' E 134°47'.

Length 120 m; draft 5.7 m.

Type: Cargo ship. MMSI: 356613000.

Date/timePositionNaut miles runAvg speedWind from/ knotsBaromVisibWave heightAir tempDewpointWater temp
2015-Jun-27 09:27N 34°33' E 134°47'1314.9
2015-Jun-27 08:33N 34°36' E 135°03'1312.6
2015-Jun-27 07:34N 34°38' E 135°18'3 3.1
2015-Jun-27 06:30N 34°41' E 135°17'0 0.0
2015-Jun-27 05:30N 34°41' E 135°17'0 0.0
2015-Jun-27 03:24N 34°41' E 135°17'0 0.0
2015-Jun-27 02:30N 34°41' E 135°17'0 0.0
2015-Jun-27 01:30N 34°41' E 135°17'0 0.0
2015-Jun-27 00:33N 34°41' E 135°17'5 5.1
2015-Jun-26 23:33N 34°37' E 135°19'8 7.7
2015-Jun-26 22:33N 34°29' E 135°17'1 1.1
2015-Jun-26 21:33N 34°29' E 135°15'1 1.2
2015-Jun-26 20:33N 34°30' E 135°14'5 5.3
2015-Jun-26 19:33N 34°27' E 135°09'1312.6
2015-Jun-26 18:32N 34°16' E 134°59'1414.2
2015-Jun-26 17:34N 34°02' E 134°59'172 6.4
2015-Jun-25 14:32N 34°29' E 138°24'6012.0
2015-Jun-25 09:33N 34°58' E 139°27'1313.3
2015-Jun-25 08:33N 35°06' E 139°40'1211.6
2015-Jun-25 07:33N 35°17' E 139°45'1110.5
2015-Jun-25 06:33N 35°27' E 139°43'2 1.6
2015-Jun-25 05:31N 35°28' E 139°41'0 0.0
2015-Jun-25 04:31N 35°28' E 139°41'0 0.0
2015-Jun-25 03:31N 35°28' E 139°41'0 0.0
2015-Jun-25 02:31N 35°28' E 139°41'0 0.0
2015-Jun-25 01:31N 35°28' E 139°41'0 0.2
2015-Jun-25 00:33N 35°28' E 139°41'2 2.3
2015-Jun-24 23:31N 35°26' E 139°42'0 0.0
2015-Jun-24 22:31N 35°26' E 139°42'0 0.0
2015-Jun-24 21:31N 35°26' E 139°42'0 0.0
2015-Jun-24 20:31N 35°26' E 139°42'0 0.0
2015-Jun-24 19:31N 35°26' E 139°42'0 0.1
2015-Jun-24 18:31N 35°26' E 139°42'0 0.0
2015-Jun-24 17:31N 35°26' E 139°42'0 0.0
2015-Jun-24 16:31N 35°26' E 139°42'0 0.0
2015-Jun-24 15:31N 35°26' E 139°42'0 0.1
2015-Jun-24 14:31N 35°26' E 139°42'0 0.0
2015-Jun-24 13:31N 35°26' E 139°42'0 0.1
2015-Jun-24 12:31N 35°26' E 139°42'0 0.0
2015-Jun-24 11:31N 35°26' E 139°42'0 0.0
2015-Jun-24 10:31N 35°26' E 139°42'0 0.0
2015-Jun-24 09:31N 35°26' E 139°42'0 0.0
2015-Jun-24 08:31N 35°26' E 139°42'0 0.0
2015-Jun-24 07:31N 35°26' E 139°42'0 0.0
2015-Jun-24 06:31N 35°26' E 139°42'0 0.1
2015-Jun-24 05:31N 35°26' E 139°42'0 0.0
2015-Jun-24 04:31N 35°26' E 139°42'0 0.0
2015-Jun-24 03:31N 35°26' E 139°42'0 0.0
2015-Jun-24 02:31N 35°26' E 139°42'0 0.0
2015-Jun-24 01:31N 35°26' E 139°42'0 0.0
2015-Jun-24 00:31N 35°26' E 139°42'0 0.0
2015-Jun-23 23:31N 35°26' E 139°42'0 0.0
2015-Jun-23 22:31N 35°26' E 139°42'0 0.0
2015-Jun-23 21:31N 35°26' E 139°42'0 0.0
2015-Jun-23 20:31N 35°26' E 139°42'0 0.0
2015-Jun-23 19:31N 35°26' E 139°42'0 0.1
2015-Jun-23 19:04N 35°26' E 139°42'0 0.0
2015-Jun-22 19:31N 35°26' E 139°42'0 0.0
2015-Jun-22 18:31N 35°26' E 139°42'0 0.0
2015-Jun-22 17:31N 35°26' E 139°42'0 0.1
2015-Jun-22 16:31N 35°26' E 139°42'0 0.0
2015-Jun-22 15:31N 35°26' E 139°42'0 0.0
2015-Jun-22 14:31N 35°26' E 139°42'0 0.0
2015-Jun-22 13:31N 35°26' E 139°42'0 0.1
2015-Jun-22 12:28N 35°26' E 139°42'0 0.0
2015-Jun-22 11:31N 35°26' E 139°42'0 0.0
2015-Jun-22 10:31N 35°26' E 139°42'0 0.0
2015-Jun-22 09:31N 35°26' E 139°42'0 0.0
2015-Jun-22 08:31N 35°26' E 139°42'0 0.0
2015-Jun-22 07:31N 35°26' E 139°42'0 0.0
2015-Jun-22 06:31N 35°26' E 139°42'0 0.0
2015-Jun-22 05:31N 35°26' E 139°42'0 0.1
2015-Jun-22 04:31N 35°26' E 139°42'1 0.8
2015-Jun-22 03:33N 35°25' E 139°43'5 5.1
2015-Jun-22 02:33N 35°20' E 139°43'9 9.1
2015-Jun-22 01:33N 35°12' E 139°47'9 8.7
2015-Jun-22 00:33N 35°03' E 139°44'1313.3
2015-Jun-21 23:33N 34°56' E 139°30'  
Track history (hours):
 
Tides and Currents Weather Stations Pressure Air Temp Water Temp Dewpoint Dewpoint Depression Visibility Wind Speed Wind Dir Waves Ship Positions

Pulau Tioman

Last reported at 2015-Jun-27 09:27 UTC. Time now 2015-Jul-01 12:49 UTC.
Position N 34°33' E 134°47'.

Length 120 m; draft 5.7 m.

Type: Cargo ship. MMSI: 356613000.

Date/timePositionNaut miles runAvg speedWind from/ knotsBaromVisibWave heightAir tempDewpointWater temp
2015-Jun-27 09:27N 34°33' E 134°47'1314.9
2015-Jun-27 08:33N 34°36' E 135°03'1312.6
2015-Jun-27 07:34N 34°38' E 135°18'3 3.1
2015-Jun-27 06:30N 34°41' E 135°17'0 0.0
2015-Jun-27 05:30N 34°41' E 135°17'0 0.0
2015-Jun-27 03:24N 34°41' E 135°17'0 0.0
2015-Jun-27 02:30N 34°41' E 135°17'0 0.0
2015-Jun-27 01:30N 34°41' E 135°17'0 0.0
2015-Jun-27 00:33N 34°41' E 135°17'5 5.1
2015-Jun-26 23:33N 34°37' E 135°19'8 7.7
2015-Jun-26 22:33N 34°29' E 135°17'1 1.1
2015-Jun-26 21:33N 34°29' E 135°15'1 1.2
2015-Jun-26 20:33N 34°30' E 135°14'5 5.3
2015-Jun-26 19:33N 34°27' E 135°09'1312.6
2015-Jun-26 18:32N 34°16' E 134°59'1414.2
2015-Jun-26 17:34N 34°02' E 134°59'172 6.4
2015-Jun-25 14:32N 34°29' E 138°24'6012.0
2015-Jun-25 09:33N 34°58' E 139°27'1313.3
2015-Jun-25 08:33N 35°06' E 139°40'1211.6
2015-Jun-25 07:33N 35°17' E 139°45'1110.5
2015-Jun-25 06:33N 35°27' E 139°43'2 1.6
2015-Jun-25 05:31N 35°28' E 139°41'0 0.0
2015-Jun-25 04:31N 35°28' E 139°41'0 0.0
2015-Jun-25 03:31N 35°28' E 139°41'0 0.0
2015-Jun-25 02:31N 35°28' E 139°41'0 0.0
2015-Jun-25 01:31N 35°28' E 139°41'0 0.2
2015-Jun-25 00:33N 35°28' E 139°41'2 2.3
2015-Jun-24 23:31N 35°26' E 139°42'0 0.0
2015-Jun-24 22:31N 35°26' E 139°42'0 0.0
2015-Jun-24 21:31N 35°26' E 139°42'0 0.0
2015-Jun-24 20:31N 35°26' E 139°42'0 0.0
2015-Jun-24 19:31N 35°26' E 139°42'0 0.1
2015-Jun-24 18:31N 35°26' E 139°42'0 0.0
2015-Jun-24 17:31N 35°26' E 139°42'0 0.0
2015-Jun-24 16:31N 35°26' E 139°42'0 0.0
2015-Jun-24 15:31N 35°26' E 139°42'0 0.1
2015-Jun-24 14:31N 35°26' E 139°42'0 0.0
2015-Jun-24 13:31N 35°26' E 139°42'0 0.1
2015-Jun-24 12:31N 35°26' E 139°42'0 0.0
2015-Jun-24 11:31N 35°26' E 139°42'0 0.0
2015-Jun-24 10:31N 35°26' E 139°42'0 0.0
2015-Jun-24 09:31N 35°26' E 139°42'0 0.0
2015-Jun-24 08:31N 35°26' E 139°42'0 0.0
2015-Jun-24 07:31N 35°26' E 139°42'0 0.0
2015-Jun-24 06:31N 35°26' E 139°42'0 0.1
2015-Jun-24 05:31N 35°26' E 139°42'0 0.0
2015-Jun-24 04:31N 35°26' E 139°42'0 0.0
2015-Jun-24 03:31N 35°26' E 139°42'0 0.0
2015-Jun-24 02:31N 35°26' E 139°42'0 0.0
2015-Jun-24 01:31N 35°26' E 139°42'0 0.0
2015-Jun-24 00:31N 35°26' E 139°42'0 0.0
2015-Jun-23 23:31N 35°26' E 139°42'0 0.0
2015-Jun-23 22:31N 35°26' E 139°42'0 0.0
2015-Jun-23 21:31N 35°26' E 139°42'0 0.0
2015-Jun-23 20:31N 35°26' E 139°42'0 0.0
2015-Jun-23 19:31N 35°26' E 139°42'0 0.1
2015-Jun-23 19:04N 35°26' E 139°42'0 0.0
2015-Jun-22 19:31N 35°26' E 139°42'0 0.0
2015-Jun-22 18:31N 35°26' E 139°42'0 0.0
2015-Jun-22 17:31N 35°26' E 139°42'0 0.1
2015-Jun-22 16:31N 35°26' E 139°42'0 0.0
2015-Jun-22 15:31N 35°26' E 139°42'0 0.0
2015-Jun-22 14:31N 35°26' E 139°42'0 0.0
2015-Jun-22 13:31N 35°26' E 139°42'0 0.1
2015-Jun-22 12:28N 35°26' E 139°42'0 0.0
2015-Jun-22 11:31N 35°26' E 139°42'0 0.0
2015-Jun-22 10:31N 35°26' E 139°42'0 0.0
2015-Jun-22 09:31N 35°26' E 139°42'0 0.0
2015-Jun-22 08:31N 35°26' E 139°42'0 0.0
2015-Jun-22 07:31N 35°26' E 139°42'0 0.0
2015-Jun-22 06:31N 35°26' E 139°42'0 0.0
2015-Jun-22 05:31N 35°26' E 139°42'0 0.1
2015-Jun-22 04:31N 35°26' E 139°42'1 0.8
2015-Jun-22 03:33N 35°25' E 139°43'5 5.1
2015-Jun-22 02:33N 35°20' E 139°43'9 9.1
2015-Jun-22 01:33N 35°12' E 139°47'9 8.7
2015-Jun-22 00:33N 35°03' E 139°44'1313.3
2015-Jun-21 23:33N 34°56' E 139°30'  

Dump ship's entire track history